Prospect, Pennsylvania
Current Conditions -  °F | °C
As of 10:15 AM on Saturday 25 Oct 2014 (Local Time) from KBTP Reporting Station
Broken Clouds Broken Clouds  
Wind Chill: 54°   Ceiling: 10000
Heat Index: 54°   Visibility: 10mi
Dew Point: 43°   Wind: 9mph
Humidity: 67%   Direction: 230°SW
Pressure: 29.95"   Gusts: NA
Location:  40.9°N, 80.05°W
Report Text: KBTP 251415Z AUTO 23008KT 10SM BKN100 12/06 A2995 RMK AO1
Loading
Personal Weather Stations






























Interactive Weather Map
Tropical Storm Tracking
New forecast layout! Learn more

10-Day Weather Forecast

Advertisements
Track Severe Weather on mobile